Time;durP1;ratioP1;P1;durP2;ratioP2;P2;SDS_P1;SDS_P2;PMS_P1;PMS_P2;Temp;Humidity;BMP_temperature;BMP_pressure;BME280_temperature;BME280_humidity;BME280_pressure;Samples;Min_cycle;Max_cycle;Signal;HPM_P1;HPM_P2
2022/09/03 04:01:56;;;;;;;2.27;2.07;;;17.80;99.90;;;;;;5319309;23;21014;-75
2022/09/03 04:04:22;;;;;;;3.80;2.50;;;17.80;99.90;;;;;;4987630;28;20467;-74
2022/09/03 04:06:49;;;;;;;3.20;2.77;;;17.80;99.90;;;;;;4988106;28;20468;-75
2022/09/03 04:09:16;;;;;;;4.40;2.90;;;17.80;99.90;;;;;;4987708;28;20467;-75
2022/09/03 04:11:43;;;;;;;3.90;2.80;;;17.80;99.90;;;;;;4987673;28;20503;-74
2022/09/03 04:14:10;;;;;;;5.00;3.33;;;17.80;99.90;;;;;;4987448;28;20482;-74
2022/09/03 04:16:37;;;;;;;6.37;3.70;;;17.80;99.90;;;;;;4988182;28;20551;-74
2022/09/03 04:19:05;;;;;;;4.80;3.20;;;17.80;99.90;;;;;;4987053;28;20459;-74
2022/09/03 04:21:32;;;;;;;4.97;3.23;;;17.80;99.90;;;;;;4988153;28;20528;-74
2022/09/03 04:23:59;;;;;;;5.73;3.53;;;17.80;99.90;;;;;;4987577;28;20460;-76
2022/09/03 04:26:30;;;;;;;3.60;2.67;;;17.80;99.90;;;;;;4987916;28;20834;-74
2022/09/03 04:28:57;;;;;;;4.03;2.67;;;17.80;99.90;;;;;;4986867;28;20472;-75
2022/09/03 04:31:24;;;;;;;4.90;2.93;;;17.80;99.90;;;;;;4987652;28;20504;-75
2022/09/03 04:33:51;;;;;;;5.27;2.70;;;17.80;99.90;;;;;;4987591;28;20464;-75
2022/09/03 04:36:21;;;;;;;3.00;2.13;;;17.80;99.90;;;;;;4986668;28;20459;-76
2022/09/03 04:38:50;;;;;;;5.70;2.10;;;17.80;99.90;;;;;;4988059;28;20452;-74
2022/09/03 04:41:18;;;;;;;2.70;2.10;;;17.80;99.90;;;;;;4987110;28;20828;-75
2022/09/03 04:43:47;;;;;;;3.87;2.37;;;17.80;99.90;;;;;;4987548;28;20466;-74
2022/09/03 04:46:15;;;;;;;3.20;2.50;;;17.80;99.90;;;;;;4987170;28;20467;-74
2022/09/03 04:48:42;;;;;;;2.20;2.00;;;17.80;99.90;;;;;;4987991;28;20478;-75
2022/09/03 04:51:12;;;;;;;3.00;2.33;;;17.80;99.90;;;;;;4987430;28;20502;-74
2022/09/03 04:53:42;;;;;;;4.37;2.63;;;17.80;99.90;;;;;;4987476;28;20526;-75
2022/09/03 04:56:13;;;;;;;3.60;2.47;;;17.80;99.90;;;;;;4986411;28;20464;-75
2022/09/03 04:58:42;;;;;;;3.50;2.63;;;17.80;99.90;;;;;;4987223;28;20944;-75
2022/09/03 05:01:10;;;;;;;7.90;1.93;;;17.80;99.90;;;;;;4987243;28;20497;-75
2022/09/03 05:03:37;;;;;;;3.83;2.33;;;17.80;99.90;;;;;;4987195;28;20471;-75
2022/09/03 05:06:05;;;;;;;2.80;1.90;;;17.80;99.90;;;;;;4986444;28;20468;-75
2022/09/03 05:08:35;;;;;;;2.50;2.30;;;17.80;99.90;;;;;;4987252;28;20455;-75
2022/09/03 05:11:04;;;;;;;4.17;2.30;;;17.80;99.90;;;;;;4987282;28;20498;-75
2022/09/03 05:13:32;;;;;;;2.43;1.80;;;17.80;99.90;;;;;;4987424;28;20463;-76
2022/09/03 05:16:00;;;;;;;3.60;2.60;;;17.80;99.90;;;;;;4984830;28;20464;-75
2022/09/03 05:18:27;;;;;;;6.10;2.27;;;17.80;99.90;;;;;;4986794;28;20923;-75
2022/09/03 05:20:59;;;;;;;3.73;2.53;;;17.80;99.90;;;;;;4986756;28;20475;-77
2022/09/03 05:23:26;;;;;;;3.20;2.30;;;17.80;99.90;;;;;;4987095;28;20499;-75
2022/09/03 05:25:57;;;;;;;3.10;2.80;;;17.80;99.90;;;;;;4986131;28;20464;-75
2022/09/03 05:28:26;;;;;;;3.20;2.27;;;17.80;99.90;;;;;;4987174;28;20454;-75
2022/09/03 05:30:59;;;;;;;3.10;2.77;;;17.80;99.90;;;;;;4986996;28;20506;-75
2022/09/03 05:33:26;;;;;;;2.67;2.23;;;17.90;99.90;;;;;;4986623;28;20920;-75
2022/09/03 05:35:53;;;;;;;3.30;2.13;;;17.90;99.90;;;;;;4986328;28;20467;-75
2022/09/03 05:38:20;;;;;;;2.77;2.20;;;17.90;99.90;;;;;;4986692;28;20470;-75
2022/09/03 05:40:47;;;;;;;2.50;2.30;;;17.90;99.90;;;;;;4986535;28;20483;-76
2022/09/03 05:43:16;;;;;;;3.00;2.50;;;17.90;99.90;;;;;;4986842;28;20471;-75
2022/09/03 05:45:44;;;;;;;5.23;2.43;;;17.90;99.90;;;;;;4986226;28;20476;-75
2022/09/03 05:48:11;;;;;;;3.03;2.00;;;17.90;99.90;;;;;;4986011;28;20464;-75
2022/09/03 05:50:37;;;;;;;3.27;2.40;;;17.90;99.90;;;;;;4985659;28;20503;-75
2022/09/03 05:53:04;;;;;;;3.03;2.30;;;17.90;99.90;;;;;;4985747;28;20474;-76
2022/09/03 05:55:34;;;;;;;5.33;2.23;;;17.90;99.90;;;;;;4986223;28;20466;-75
2022/09/03 05:58:01;;;;;;;4.27;2.17;;;17.90;99.90;;;;;;4986769;28;20467;-75
2022/09/03 06:00:27;;;;;;;2.90;2.10;;;17.90;99.90;;;;;;4986038;28;20542;-75
2022/09/03 06:02:56;;;;;;;2.50;2.00;;;17.80;99.90;;;;;;4986497;28;20559;-75
2022/09/03 06:05:23;;;;;;;2.20;1.67;;;17.80;99.90;;;;;;4985209;28;20846;-75
2022/09/03 06:07:52;;;;;;;3.30;2.30;;;17.90;99.90;;;;;;4986471;28;20477;-75
2022/09/03 06:10:18;;;;;;;2.83;2.17;;;17.90;99.90;;;;;;4986181;28;20459;-75
2022/09/03 06:12:48;;;;;;;4.03;2.30;;;17.90;99.90;;;;;;4986225;28;20469;-75
2022/09/03 06:15:15;;;;;;;4.17;2.80;;;17.90;99.90;;;;;;4984345;28;20495;-75
2022/09/03 06:17:42;;;;;;;5.73;2.50;;;18.00;99.90;;;;;;4986228;28;20533;-75
2022/09/03 06:20:11;;;;;;;4.67;2.40;;;18.00;99.90;;;;;;4985661;28;20966;-69
2022/09/03 06:22:38;;;;;;;2.87;2.30;;;18.10;99.90;;;;;;4985671;28;20460;-69
2022/09/03 06:25:06;;;;;;;4.77;2.80;;;18.10;99.90;;;;;;4985447;28;20467;-69
2022/09/03 06:27:33;;;;;;;2.93;2.37;;;18.10;99.90;;;;;;4985625;28;20542;-69
2022/09/03 06:30:00;;;;;;;3.70;2.07;;;18.20;99.90;;;;;;4985511;28;20830;-69
2022/09/03 06:32:28;;;;;;;4.30;2.60;;;18.20;99.90;;;;;;4985092;28;20872;-69
2022/09/03 06:34:54;;;;;;;3.43;2.30;;;18.20;99.90;;;;;;4985517;28;20450;-69
2022/09/03 06:37:23;;;;;;;2.50;2.17;;;18.20;99.90;;;;;;4985781;28;20463;-69
2022/09/03 06:39:50;;;;;;;3.87;2.30;;;18.20;99.90;;;;;;4985824;28;20464;-69
2022/09/03 06:42:17;;;;;;;4.00;2.70;;;18.30;99.90;;;;;;4984352;28;20491;-76
2022/09/03 06:44:44;;;;;;;6.20;2.50;;;18.30;99.90;;;;;;4985426;28;20444;-76
2022/09/03 06:47:11;;;;;;;2.40;2.07;;;18.40;99.90;;;;;;4985625;28;20470;-75
2022/09/03 06:49:38;;;;;;;2.57;2.37;;;18.40;99.90;;;;;;4986145;28;20460;-75
2022/09/03 06:52:05;;;;;;;3.57;2.40;;;18.50;99.90;;;;;;4985860;28;20499;-75
2022/09/03 06:54:33;;;;;;;3.10;2.60;;;18.50;99.90;;;;;;4985159;28;20495;-75
2022/09/03 06:57:00;;;;;;;2.60;2.23;;;18.60;99.90;;;;;;4985466;28;20466;-76
2022/09/03 06:59:27;;;;;;;2.80;2.27;;;18.60;99.90;;;;;;4986682;28;20463;-69
2022/09/03 07:01:54;;;;;;;6.80;2.53;;;18.60;99.90;;;;;;4986380;28;20574;-69
2022/09/03 07:04:23;;;;;;;5.77;2.30;;;18.60;99.90;;;;;;4987297;28;20554;-67
2022/09/03 07:06:50;;;;;;;3.20;2.40;;;18.70;99.90;;;;;;4989502;28;20459;-69
2022/09/03 07:09:17;;;;;;;4.93;2.70;;;18.70;99.90;;;;;;4989062;28;20467;-69
2022/09/03 07:11:46;;;;;;;25.03;3.93;;;18.80;99.90;;;;;;4988714;28;20578;-69
2022/09/03 07:14:13;;;;;;;3.30;2.20;;;18.90;99.90;;;;;;4987387;28;20499;-69
2022/09/03 07:16:42;;;;;;;3.43;2.60;;;18.90;99.90;;;;;;4988455;28;20451;-69
2022/09/03 07:19:09;;;;;;;2.90;2.43;;;18.90;99.90;;;;;;4989052;28;20470;-69
2022/09/03 07:21:37;;;;;;;2.50;2.20;;;18.90;99.90;;;;;;4989124;28;20487;-69
2022/09/03 07:24:05;;;;;;;4.23;2.40;;;18.90;99.90;;;;;;4987068;28;20463;-70
2022/09/03 07:26:34;;;;;;;3.87;2.50;;;18.90;99.90;;;;;;4989233;28;20482;-70
2022/09/03 07:29:03;;;;;;;3.70;2.67;;;19.00;99.90;;;;;;4988784;28;20998;-70
2022/09/03 07:31:32;;;;;;;4.67;2.73;;;19.00;99.90;;;;;;4988578;28;20495;-70
2022/09/03 07:34:02;;;;;;;6.10;2.63;;;19.00;99.90;;;;;;4988270;28;20555;-70
2022/09/03 07:36:30;;;;;;;15.47;4.90;;;19.10;99.90;;;;;;4989471;28;20444;-70
2022/09/03 07:38:59;;;;;;;6.50;3.00;;;19.20;99.90;;;;;;4990227;28;20464;-69
2022/09/03 07:41:26;;;;;;;2.90;2.40;;;19.20;99.90;;;;;;4990189;28;20480;-70
2022/09/03 07:43:54;;;;;;;4.43;2.73;;;19.30;99.90;;;;;;4989080;28;20475;-70
2022/09/03 07:46:23;;;;;;;10.00;3.20;;;19.30;99.90;;;;;;4988243;28;20828;-70
2022/09/03 07:48:51;;;;;;;2.93;2.67;;;19.40;99.90;;;;;;4987400;28;20458;-70
2022/09/03 07:51:25;;;;;;;5.13;2.80;;;19.40;99.90;;;;;;4988897;28;20502;-69
2022/09/03 07:53:54;;;;;;;4.27;2.90;;;19.40;99.90;;;;;;4988325;28;20554;-70
2022/09/03 07:56:21;;;;;;;2.87;2.50;;;19.40;99.90;;;;;;4987924;28;20456;-68
2022/09/03 07:58:48;;;;;;;5.40;2.87;;;19.50;99.90;;;;;;4988304;28;20467;-69
2022/09/03 08:01:17;;;;;;;2.97;2.30;;;19.60;99.90;;;;;;4987923;28;20494;-69
2022/09/03 08:03:47;;;;;;;4.60;2.97;;;19.70;99.90;;;;;;4988095;28;20943;-69
2022/09/03 08:06:16;;;;;;;2.60;2.40;;;19.90;99.90;;;;;;4986817;28;20440;-69
2022/09/03 08:08:44;;;;;;;3.60;2.83;;;19.90;99.90;;;;;;4988884;28;20460;-69
2022/09/03 08:11:11;;;;;;;8.90;2.80;;;20.00;99.90;;;;;;4989153;28;20522;-71
2022/09/03 08:13:39;;;;;;;3.37;2.63;;;20.10;99.90;;;;;;4989041;28;20478;-71
2022/09/03 08:16:06;;;;;;;3.17;2.87;;;20.20;99.90;;;;;;4988734;28;20491;-69
2022/09/03 08:18:36;;;;;;;3.90;2.50;;;20.30;99.90;;;;;;4990677;28;20542;-68
2022/09/03 08:21:07;;;;;;;4.20;2.90;;;20.30;99.90;;;;;;4990064;28;21017;-69
2022/09/03 08:23:36;;;;;;;3.47;2.53;;;20.30;99.90;;;;;;4989150;28;20470;-69
2022/09/03 08:26:03;;;;;;;5.30;3.00;;;20.40;99.90;;;;;;4988143;28;20485;-69
2022/09/03 08:28:31;;;;;;;4.43;3.00;;;20.40;99.90;;;;;;4987330;28;20460;-69
2022/09/03 08:30:58;;;;;;;2.60;2.40;;;20.50;99.90;;;;;;4987026;28;20498;-69
2022/09/03 08:33:37;;;;;;;5.63;2.80;;;20.60;99.90;;;;;;4988782;28;20451;-69
2022/09/03 08:36:08;;;;;;;5.20;3.53;;;20.70;99.90;;;;;;4986865;28;20522;-69
2022/09/03 08:38:37;;;;;;;11.23;4.10;;;20.70;99.90;;;;;;4988237;28;20464;-69
2022/09/03 08:41:10;;;;;;;15.97;3.90;;;20.70;99.90;;;;;;4987963;28;20483;-69
2022/09/03 08:43:59;;;;;;;3.87;2.83;;;20.80;99.90;;;;;;4987765;28;20467;-67
2022/09/03 08:46:38;;;;;;;3.40;3.00;;;20.80;99.90;;;;;;4985190;28;20844;-67
2022/09/03 08:49:06;;;;;;;3.53;3.00;;;20.80;99.90;;;;;;4987693;28;20460;-67
2022/09/03 08:51:39;;;;;;;3.60;3.13;;;20.90;99.90;;;;;;4986918;28;20499;-68
2022/09/03 08:54:09;;;;;;;3.67;2.77;;;20.80;99.90;;;;;;4986336;28;20478;-69
2022/09/03 08:56:39;;;;;;;4.43;3.20;;;21.00;99.90;;;;;;4986231;28;20471;-69
2022/09/03 08:59:06;;;;;;;3.33;2.80;;;21.00;99.90;;;;;;4987228;28;21100;-69
2022/09/03 09:01:42;;;;;;;3.30;2.63;;;21.10;99.90;;;;;;4987037;28;20492;-69
2022/09/03 09:04:22;;;;;;;4.00;3.00;;;21.20;99.90;;;;;;4985753;28;20454;-69
2022/09/03 09:06:55;;;;;;;3.70;2.97;;;21.20;99.90;;;;;;4987187;28;20455;-69
2022/09/03 09:09:30;;;;;;;5.73;2.93;;;21.20;99.90;;;;;;4987278;28;20847;-69
2022/09/03 09:12:13;;;;;;;4.00;2.97;;;21.30;99.90;;;;;;4985760;28;20585;-69
2022/09/03 09:14:50;;;;;;;3.53;3.17;;;21.40;99.90;;;;;;4986086;28;20444;-69
2022/09/03 09:17:31;;;;;;;3.87;3.47;;;21.50;99.90;;;;;;4985133;28;20533;-69
2022/09/03 09:20:07;;;;;;;5.10;3.57;;;21.50;99.90;;;;;;4985368;28;20514;-69
2022/09/03 09:22:39;;;;;;;4.23;3.03;;;21.60;99.90;;;;;;4986564;28;20514;-69
2022/09/03 09:25:13;;;;;;;3.33;3.03;;;21.60;99.90;;;;;;4986369;28;20521;-68
2022/09/03 09:27:50;;;;;;;3.90;3.07;;;21.60;99.90;;;;;;4987204;28;20452;-68
2022/09/03 09:30:18;;;;;;;8.87;3.00;;;21.60;99.90;;;;;;4987089;28;20447;-67
2022/09/03 09:32:46;;;;;;;6.70;3.20;;;21.70;99.90;;;;;;4986720;28;20565;-68
2022/09/03 09:35:14;;;;;;;3.93;3.10;;;21.70;99.90;;;;;;4986132;28;20455;-68
2022/09/03 09:37:50;;;;;;;2.90;2.60;;;21.70;99.90;;;;;;4986806;28;20471;-68
2022/09/03 09:40:31;;;;;;;3.70;3.40;;;21.70;99.90;;;;;;4986641;28;20474;-68
2022/09/03 09:43:07;;;;;;;3.10;2.80;;;21.70;99.90;;;;;;4986466;28;21203;-68
2022/09/03 09:45:34;;;;;;;3.40;3.10;;;21.70;99.90;;;;;;4986135;28;20474;-68
2022/09/03 09:48:03;;;;;;;4.50;3.70;;;21.80;99.90;;;;;;4986364;28;20456;-68
2022/09/03 09:50:29;;;;;;;6.60;3.40;;;21.80;99.90;;;;;;4986470;28;20463;-68
2022/09/03 09:53:13;;;;;;;7.50;5.43;;;21.90;99.90;;;;;;4986372;28;20502;-68
2022/09/03 09:55:49;;;;;;;4.83;3.50;;;22.00;99.90;;;;;;4985563;28;20479;-68
2022/09/03 09:58:19;;;;;;;5.23;3.47;;;22.20;99.90;;;;;;4986118;28;20463;-69
2022/09/03 10:00:59;;;;;;;4.60;2.80;;;22.40;99.90;;;;;;4986059;28;20487;-68
2022/09/03 10:03:28;;;;;;;3.93;2.90;;;22.40;99.90;;;;;;4985618;28;20436;-68
2022/09/03 10:06:52;;;;;;;3.43;3.13;;;22.60;99.90;;;;;;4985378;28;21387;-69
2022/09/03 10:08:53;;;;;;;6.20;3.10;;;22.60;99.90;;;;;;4985925;28;20467;-69
2022/09/03 10:11:24;;;;;;;3.80;3.20;;;22.80;99.90;;;;;;4986278;28;20530;-69
2022/09/03 10:13:54;;;;;;;3.43;3.13;;;22.80;99.90;;;;;;4985979;28;20924;-69
2022/09/03 10:16:26;;;;;;;3.60;3.10;;;22.90;99.90;;;;;;4985399;28;20466;-68
2022/09/03 10:19:00;;;;;;;4.57;3.30;;;23.10;99.90;;;;;;4985949;28;20952;-68
2022/09/03 10:21:36;;;;;;;4.83;3.90;;;23.30;99.90;;;;;;4986361;28;20860;-69
2022/09/03 10:24:26;;;;;;;5.63;3.17;;;23.40;99.90;;;;;;4985917;28;20443;-69
2022/09/03 10:26:53;;;;;;;5.70;3.10;;;23.50;99.90;;;;;;4973565;28;20810;-69
2022/09/03 10:29:24;;;;;;;5.80;2.73;;;23.60;99.90;;;;;;4985855;28;20963;-69
2022/09/03 10:32:02;;;;;;;8.00;3.30;;;23.90;99.90;;;;;;4986235;28;20476;-69
2022/09/03 10:34:35;;;;;;;4.77;2.80;;;24.00;99.90;;;;;;4985707;28;20966;-69
2022/09/03 10:37:11;;;;;;;6.73;3.37;;;24.20;99.90;;;;;;4986126;28;20447;-68
2022/09/03 10:39:55;;;;;;;4.33;3.13;;;24.60;99.90;;;;;;4987942;28;20465;-67
2022/09/03 10:42:44;;;;;;;4.67;3.17;;;24.90;99.90;;;;;;4989878;28;20471;-68
2022/09/03 10:45:19;;;;;;;3.30;2.77;;;24.90;99.90;;;;;;4988926;28;20555;-67
2022/09/03 10:48:24;;;;;;;7.23;3.33;;;24.70;99.90;;;;;;4989978;28;20481;-67
2022/09/03 10:50:55;;;;;;;4.60;3.57;;;24.50;99.90;;;;;;4990559;28;20483;-68
2022/09/03 10:53:34;;;;;;;6.80;2.70;;;24.60;99.90;;;;;;4990095;28;20491;-67
2022/09/03 10:56:08;;;;;;;3.70;3.00;;;25.00;99.90;;;;;;4989357;28;20463;-68
2022/09/03 10:58:48;;;;;;;3.87;3.13;;;25.50;99.90;;;;;;4989390;28;20482;-69
2022/09/03 11:01:24;;;;;;;3.10;2.80;;;26.30;99.90;;;;;;4989412;28;20574;-69
2022/09/03 11:04:02;;;;;;;3.70;3.00;;;26.20;99.90;;;;;;4987789;28;20531;-69
2022/09/03 11:06:42;;;;;;;4.27;2.80;;;25.90;99.90;;;;;;4989471;28;20443;-69
2022/09/03 11:09:17;;;;;;;6.37;2.97;;;25.80;99.90;;;;;;4989518;28;20613;-69
2022/09/03 11:11:51;;;;;;;6.53;3.33;;;25.90;99.90;;;;;;4989326;28;20475;-69
2022/09/03 11:14:28;;;;;;;4.07;3.47;;;25.70;99.90;;;;;;4989006;28;20450;-69
2022/09/03 11:17:01;;;;;;;2.93;2.40;;;25.80;99.90;;;;;;4989338;28;20813;-69
2022/09/03 11:19:34;;;;;;;5.87;2.90;;;25.70;99.90;;;;;;4989109;28;20432;-69
2022/09/03 11:22:03;;;;;;;6.60;2.87;;;25.50;99.90;;;;;;4989390;28;20480;-69
2022/09/03 11:24:33;;;;;;;4.00;2.70;;;25.40;99.90;;;;;;4988370;28;20487;-69
2022/09/03 11:27:10;;;;;;;3.07;2.80;;;25.40;99.90;;;;;;4989147;28;20464;-69
2022/09/03 11:29:45;;;;;;;3.20;2.90;;;25.40;99.90;;;;;;4988955;28;20451;-69
2022/09/03 11:32:18;;;;;;;4.03;2.87;;;25.40;99.90;;;;;;4989190;28;20495;-69
2022/09/03 11:34:47;;;;;;;4.50;2.57;;;25.30;99.90;;;;;;4988691;28;20444;-69
2022/09/03 11:37:20;;;;;;;4.60;2.93;;;25.20;99.90;;;;;;4988879;28;20499;-69
2022/09/03 11:39:56;;;;;;;3.17;2.30;;;25.20;99.90;;;;;;4989374;28;20444;-69
2022/09/03 11:42:35;;;;;;;3.00;2.53;;;25.10;99.90;;;;;;4988616;28;20474;-69
2022/09/03 11:45:19;;;;;;;3.67;2.90;;;25.20;99.90;;;;;;4988105;28;20487;-69
2022/09/03 11:47:49;;;;;;;2.80;2.60;;;25.00;99.90;;;;;;4988976;28;20451;-69
2022/09/03 11:50:22;;;;;;;3.57;2.50;;;25.20;99.90;;;;;;4987905;28;20804;-69
2022/09/03 11:52:50;;;;;;;6.80;3.00;;;25.10;99.90;;;;;;4988513;28;20487;-68
2022/09/03 11:55:30;;;;;;;3.60;2.70;;;25.10;99.90;;;;;;4988080;28;20499;-69
2022/09/03 11:57:58;;;;;;;2.90;2.60;;;25.10;99.90;;;;;;4988924;28;20459;-68
2022/09/03 12:00:25;;;;;;;6.00;2.77;;;25.10;99.90;;;;;;4986994;28;20468;-68
2022/09/03 12:02:56;;;;;;;2.53;2.33;;;25.60;99.90;;;;;;4986692;28;20828;-68
2022/09/03 12:05:30;;;;;;;3.30;2.40;;;25.70;99.90;;;;;;4987609;28;20463;-68
2022/09/03 12:08:15;;;;;;;3.73;2.60;;;25.50;99.90;;;;;;4968971;28;20445;-70
2022/09/03 12:10:52;;;;;;;4.13;2.30;;;25.30;99.90;;;;;;4969591;28;20476;-69
2022/09/03 12:13:42;;;;;;;5.37;2.70;;;25.00;99.90;;;;;;4968964;28;20496;-70
2022/09/03 12:16:44;;;;;;;4.70;2.60;;;24.90;99.90;;;;;;4973768;28;20460;-69
2022/09/03 12:19:21;;;;;;;3.60;3.00;;;24.80;99.90;;;;;;4986266;28;21041;-70
2022/09/03 12:21:49;;;;;;;3.10;2.80;;;24.90;99.90;;;;;;4988584;28;20498;-70
2022/09/03 12:24:17;;;;;;;8.27;2.77;;;24.70;99.90;;;;;;4987900;28;20475;-69
2022/09/03 12:26:44;;;;;;;3.33;2.83;;;24.50;99.90;;;;;;4987107;28;21183;-70
2022/09/03 12:29:26;;;;;;;3.30;3.00;;;24.50;99.90;;;;;;4988635;28;20443;-70
2022/09/03 12:31:55;;;;;;;3.80;3.03;;;24.40;99.90;;;;;;4988018;28;21223;-70
2022/09/03 12:34:23;;;;;;;3.33;2.90;;;24.40;99.90;;;;;;4987405;28;20498;-70
2022/09/03 12:36:52;;;;;;;6.93;3.07;;;24.40;99.90;;;;;;4988438;28;20467;-71
2022/09/03 12:39:22;;;;;;;3.90;3.07;;;24.40;99.90;;;;;;4987991;28;20899;-70
2022/09/03 12:42:02;;;;;;;6.00;3.53;;;24.30;99.90;;;;;;4988243;28;20471;-70
2022/09/03 12:44:32;;;;;;;5.43;2.73;;;24.20;99.90;;;;;;4987581;28;20488;-70
2022/09/03 12:47:06;;;;;;;3.60;3.07;;;24.00;99.90;;;;;;4987793;28;20489;-70
2022/09/03 12:49:37;;;;;;;4.83;3.30;;;23.90;99.90;;;;;;4986097;28;20500;-70
2022/09/03 12:52:11;;;;;;;4.47;3.60;;;23.80;99.90;;;;;;4987782;28;20534;-70
2022/09/03 12:54:43;;;;;;;4.20;3.37;;;23.80;99.90;;;;;;4987186;28;20877;-70
2022/09/03 12:57:22;;;;;;;4.90;4.17;;;23.70;99.90;;;;;;4987876;28;20452;-70
2022/09/03 12:59:54;;;;;;;5.70;3.67;;;23.60;99.90;;;;;;4986139;28;20464;-70
2022/09/03 13:02:26;;;;;;;10.50;3.60;;;23.70;99.90;;;;;;4987065;28;20495;-70
2022/09/03 13:04:53;;;;;;;4.30;3.17;;;23.70;99.90;;;;;;4987075;28;21178;-71
2022/09/03 13:07:27;;;;;;;3.97;3.47;;;23.70;99.90;;;;;;4987275;28;20466;-70
2022/09/03 13:10:03;;;;;;;4.10;2.90;;;23.70;99.90;;;;;;4987589;28;20545;-70
2022/09/03 13:12:32;;;;;;;5.13;4.20;;;23.70;99.90;;;;;;4987283;28;21076;-71
2022/09/03 13:15:07;;;;;;;5.20;3.67;;;23.60;99.90;;;;;;4986477;28;20463;-69
2022/09/03 13:18:04;;;;;;;3.30;2.83;;;23.50;99.90;;;;;;4987049;28;20473;-69
2022/09/03 13:20:35;;;;;;;3.63;2.47;;;23.20;99.90;;;;;;4974539;28;20471;-68
2022/09/03 13:23:26;;;;;;;3.37;2.30;;;23.10;99.90;;;;;;4987787;28;20452;-68
2022/09/03 13:26:02;;;;;;;5.80;2.47;;;22.90;99.90;;;;;;4987207;28;20443;-69
2022/09/03 13:28:41;;;;;;;2.10;1.90;;;22.60;99.90;;;;;;4987032;28;20502;-69
2022/09/03 13:31:28;;;;;;;2.37;1.60;;;22.40;99.90;;;;;;4987342;28;20932;-69
2022/09/03 13:34:01;;;;;;;2.33;1.70;;;22.10;99.90;;;;;;4987362;28;20881;-69
2022/09/03 13:36:31;;;;;;;1.50;1.20;;;21.90;99.90;;;;;;4986905;28;20482;-69
2022/09/03 13:39:04;;;;;;;3.00;1.70;;;21.60;99.90;;;;;;4987031;28;20626;-76
2022/09/03 13:41:38;;;;;;;3.10;1.37;;;21.50;99.90;;;;;;4986962;28;20956;-77
2022/09/03 13:44:11;;;;;;;4.60;1.67;;;21.30;99.90;;;;;;4986238;28;20816;-76
2022/09/03 13:46:47;;;;;;;3.20;1.70;;;21.30;99.90;;;;;;4984315;28;20467;-74
2022/09/03 13:52:21;;;;;;;2.50;1.40;;;21.20;99.90;;;;;;4984608;28;20479;-75
2022/09/03 13:54:52;;;;;;;2.00;1.77;;;21.20;99.90;;;;;;4985246;28;20499;-75
2022/09/03 13:57:29;;;;;;;3.70;1.97;;;21.20;99.90;;;;;;4986457;28;20455;-75
2022/09/03 14:00:01;;;;;;;1.83;1.70;;;21.30;99.90;;;;;;4984591;28;20461;-75
2022/09/03 14:02:46;;;;;;;3.87;1.90;;;21.20;99.90;;;;;;4986077;28;20496;-75
2022/09/03 14:05:19;;;;;;;2.50;2.00;;;21.20;99.90;;;;;;4985716;28;20948;-75
2022/09/03 14:08:01;;;;;;;8.97;2.10;;;21.30;99.90;;;;;;4986409;28;20916;-74
2022/09/03 14:10:41;;;;;;;3.83;2.30;;;21.30;99.90;;;;;;4986524;28;20444;-74
2022/09/03 14:13:18;;;;;;;2.33;2.13;;;21.20;99.90;;;;;;4985571;28;20991;-75
2022/09/03 14:15:51;;;;;;;4.50;2.30;;;21.10;99.90;;;;;;4986016;28;20549;-75
2022/09/03 14:18:37;;;;;;;2.93;2.47;;;21.20;99.90;;;;;;4986916;28;20446;-76
2022/09/03 14:21:13;;;;;;;2.90;2.60;;;21.30;99.90;;;;;;4986804;28;20490;-75
2022/09/03 14:23:45;;;;;;;2.20;2.00;;;21.60;99.90;;;;;;4986632;28;20461;-75
2022/09/03 14:26:18;;;;;;;2.33;1.80;;;21.70;99.90;;;;;;4985819;28;20471;-76
2022/09/03 14:28:48;;;;;;;1.80;1.70;;;21.90;99.90;;;;;;4986892;28;20813;-75
2022/09/03 14:31:28;;;;;;;1.80;1.60;;;21.80;99.90;;;;;;4986615;28;20567;-76
2022/09/03 14:34:03;;;;;;;1.73;1.50;;;21.80;99.90;;;;;;4986475;28;20495;-75
2022/09/03 14:36:38;;;;;;;2.80;1.60;;;21.80;99.90;;;;;;4985674;28;20943;-75
2022/09/03 14:39:32;;;;;;;1.87;1.50;;;21.80;99.90;;;;;;4986404;28;20823;-76
2022/09/03 14:42:17;;;;;;;3.23;1.70;;;21.70;99.90;;;;;;4986273;28;20562;-75
2022/09/03 14:45:11;;;;;;;2.33;1.90;;;21.80;99.90;;;;;;4985715;28;20439;-76
2022/09/03 14:47:51;;;;;;;2.23;1.70;;;21.80;99.90;;;;;;4986141;28;20546;-76
2022/09/03 14:50:36;;;;;;;2.83;1.80;;;21.80;99.90;;;;;;4986142;28;20808;-76
2022/09/03 14:53:21;;;;;;;2.83;1.50;;;21.80;99.90;;;;;;4986156;28;20448;-75
2022/09/03 14:56:12;;;;;;;1.70;1.40;;;21.80;99.90;;;;;;4985317;28;20468;-74
2022/09/03 14:58:55;;;;;;;2.17;1.77;;;21.80;99.90;;;;;;4982110;28;20475;-77
2022/09/03 15:01:30;;;;;;;2.30;1.60;;;21.80;99.90;;;;;;4986110;28;20503;-76
2022/09/03 15:04:23;;;;;;;2.80;1.50;;;21.80;99.90;;;;;;4985759;28;20443;-75
2022/09/03 15:07:06;;;;;;;2.40;1.40;;;21.80;99.90;;;;;;4979623;28;20991;-76
2022/09/03 15:09:40;;;;;;;1.60;1.37;;;21.80;99.90;;;;;;4986086;28;20435;-75
2022/09/03 15:12:16;;;;;;;2.57;1.50;;;21.80;99.90;;;;;;4986554;28;20471;-76
2022/09/03 15:14:52;;;;;;;4.90;1.50;;;21.80;99.90;;;;;;4985416;28;20478;-76
2022/09/03 15:17:35;;;;;;;4.30;2.00;;;21.80;99.90;;;;;;4986449;28;20443;-75
2022/09/03 15:20:19;;;;;;;1.87;1.70;;;21.80;99.90;;;;;;4985983;28;20458;-75
2022/09/03 15:23:10;;;;;;;2.60;1.50;;;21.80;99.90;;;;;;4985756;28;20455;-75
2022/09/03 15:26:02;;;;;;;3.70;1.73;;;21.80;99.90;;;;;;4986944;28;20463;-76
2022/09/03 15:28:38;;;;;;;4.27;1.73;;;21.80;99.90;;;;;;4989582;28;20947;-76
2022/09/03 15:31:16;;;;;;;2.60;1.63;;;21.70;99.90;;;;;;4988205;28;20570;-75
2022/09/03 15:33:52;;;;;;;2.27;1.77;;;21.70;99.90;;;;;;4989260;28;20472;-76
2022/09/03 15:36:22;;;;;;;2.20;1.87;;;21.70;99.90;;;;;;4987419;28;20526;-75
2022/09/03 15:38:56;;;;;;;1.80;1.40;;;21.60;99.90;;;;;;4988973;28;20801;-76
2022/09/03 15:41:40;;;;;;;2.53;1.70;;;21.60;99.90;;;;;;4989116;28;20481;-76
2022/09/03 15:44:12;;;;;;;4.73;1.93;;;21.60;99.90;;;;;;4988375;28;20824;-76
2022/09/03 15:46:50;;;;;;;1.93;1.53;;;21.60;99.90;;;;;;4989172;28;20456;-76
2022/09/03 15:49:25;;;;;;;3.20;1.50;;;21.70;99.90;;;;;;4987561;28;20459;-76
2022/09/03 15:52:02;;;;;;;2.03;1.67;;;21.60;99.90;;;;;;4989044;28;20486;-75
2022/09/03 15:54:42;;;;;;;1.73;1.50;;;21.70;99.90;;;;;;4988061;28;20979;-76
2022/09/03 15:57:13;;;;;;;8.00;1.90;;;21.70;99.90;;;;;;4988956;28;20494;-76
2022/09/03 15:59:45;;;;;;;2.80;2.00;;;21.70;99.90;;;;;;4989053;28;20467;-76
2022/09/03 16:02:17;;;;;;;2.33;1.70;;;21.70;99.90;;;;;;4988550;28;20491;-77
2022/09/03 16:05:03;;;;;;;2.03;1.60;;;21.80;99.90;;;;;;4987572;28;20944;-76
2022/09/03 16:07:47;;;;;;;3.50;1.60;;;21.90;99.90;;;;;;4988475;28;20466;-74
2022/09/03 16:10:17;;;;;;;2.33;2.13;;;22.00;99.90;;;;;;4988837;28;20448;-77
2022/09/03 16:12:57;;;;;;;2.83;1.90;;;22.10;99.90;;;;;;4988655;28;20459;-75
2022/09/03 16:15:27;;;;;;;3.03;1.93;;;22.20;99.90;;;;;;4987569;28;20582;-76
2022/09/03 16:17:58;;;;;;;3.40;1.70;;;22.30;99.90;;;;;;4988310;28;20463;-74
2022/09/03 16:20:33;;;;;;;5.40;1.80;;;22.40;99.90;;;;;;4988411;28;20451;-74
2022/09/03 16:23:05;;;;;;;1.70;1.50;;;22.40;99.90;;;;;;4988691;28;20519;-75
2022/09/03 16:25:44;;;;;;;2.20;1.73;;;22.50;99.90;;;;;;4987330;28;20551;-75
2022/09/03 16:28:15;;;;;;;2.50;1.77;;;22.50;99.90;;;;;;4988581;28;20478;-74
2022/09/03 16:30:57;;;;;;;2.33;1.60;;;22.50;99.90;;;;;;4987958;28;20856;-74
2022/09/03 16:33:34;;;;;;;1.57;1.40;;;22.40;99.90;;;;;;4987779;28;20793;-74
2022/09/03 16:36:11;;;;;;;4.13;1.80;;;22.40;99.90;;;;;;4987096;28;20797;-75
2022/09/03 16:38:48;;;;;;;2.50;1.90;;;22.40;99.90;;;;;;4987436;28;21251;-75
2022/09/03 16:41:27;;;;;;;1.50;1.40;;;22.40;99.90;;;;;;4988097;28;20510;-75
2022/09/03 16:44:04;;;;;;;2.60;1.93;;;22.40;99.90;;;;;;4988073;28;20823;-75
2022/09/03 16:46:40;;;;;;;4.00;2.10;;;22.40;99.90;;;;;;4987585;28;20463;-75
2022/09/03 16:49:28;;;;;;;2.73;1.70;;;22.30;99.90;;;;;;4986322;28;20477;-75
2022/09/03 16:52:03;;;;;;;2.80;1.63;;;22.30;99.90;;;;;;4987326;28;20558;-75
2022/09/03 16:54:52;;;;;;;2.53;1.93;;;22.30;99.90;;;;;;4987285;28;20508;-75
2022/09/03 16:57:28;;;;;;;2.57;1.80;;;22.20;99.90;;;;;;4987540;28;20460;-75
2022/09/03 17:00:10;;;;;;;2.23;1.70;;;22.20;99.90;;;;;;4987888;28;20452;-75
2022/09/03 17:02:57;;;;;;;2.10;1.80;;;22.10;99.90;;;;;;4987256;28;21339;-75
2022/09/03 17:05:59;;;;;;;2.93;2.30;;;22.10;99.90;;;;;;4986942;28;20460;-75
2022/09/03 17:08:32;;;;;;;4.37;1.50;;;22.10;99.90;;;;;;4987314;28;20466;-76
2022/09/03 17:11:12;;;;;;;2.83;1.80;;;22.10;99.90;;;;;;4987969;28;20491;-76
2022/09/03 17:14:05;;;;;;;2.60;2.03;;;21.90;99.90;;;;;;4987619;28;20443;-76
2022/09/03 17:16:45;;;;;;;2.53;1.80;;;21.90;99.90;;;;;;4986791;28;20554;-76
2022/09/03 17:19:20;;;;;;;2.43;1.80;;;21.80;99.90;;;;;;4987414;28;20502;-75
2022/09/03 17:21:53;;;;;;;2.97;1.77;;;21.80;99.90;;;;;;4987439;28;20483;-76